Time;durP1;ratioP1;P1;durP2;ratioP2;P2;SDS_P1;SDS_P2;PMS_P1;PMS_P2;Temp;Humidity;BMP_temperature;BMP_pressure;BME280_temperature;BME280_humidity;BME280_pressure;Samples;Min_cycle;Max_cycle;Signal;HPM_P1;HPM_P2
2023/07/31 00:00:06;;;;;;;11.27;3.15;;;16.80;99.90;;;;;;6225180;23;20332;-67
2023/07/31 00:02:32;;;;;;;12.80;2.22;;;16.70;99.90;;;;;;6225252;23;20348;-66
2023/07/31 00:04:58;;;;;;;8.70;2.03;;;16.70;99.90;;;;;;6223652;23;20251;-67
2023/07/31 00:07:23;;;;;;;6.78;1.90;;;16.70;99.90;;;;;;6226281;23;20004;-66
2023/07/31 00:09:49;;;;;;;8.00;2.13;;;16.70;99.90;;;;;;6225453;23;20008;-66
2023/07/31 00:12:14;;;;;;;11.57;2.60;;;16.60;99.90;;;;;;6227421;23;20012;-67
2023/07/31 00:14:40;;;;;;;12.27;3.15;;;16.60;99.90;;;;;;6225684;23;20022;-67
2023/07/31 00:17:06;;;;;;;10.18;3.17;;;16.60;99.90;;;;;;6225304;23;20008;-67
2023/07/31 00:19:31;;;;;;;12.63;3.28;;;16.60;99.90;;;;;;6223497;23;20051;-67
2023/07/31 00:21:57;;;;;;;12.00;3.28;;;16.60;99.90;;;;;;6224664;23;20008;-67
2023/07/31 00:24:22;;;;;;;20.50;3.40;;;16.60;99.90;;;;;;6221502;23;20546;-66
2023/07/31 00:26:48;;;;;;;11.85;3.20;;;16.60;99.90;;;;;;6221907;23;20007;-67
2023/07/31 00:29:13;;;;;;;10.57;3.08;;;16.60;99.90;;;;;;6196068;23;20048;-67
2023/07/31 00:31:39;;;;;;;16.45;2.67;;;16.60;99.90;;;;;;6225220;23;20474;-67
2023/07/31 00:34:05;;;;;;;14.60;2.67;;;16.60;99.90;;;;;;6222908;23;20005;-67
2023/07/31 00:36:31;;;;;;;10.35;2.90;;;16.60;99.90;;;;;;6225302;23;20012;-67
2023/07/31 00:38:56;;;;;;;16.63;2.92;;;16.50;99.90;;;;;;6199265;23;20051;-67
2023/07/31 00:41:22;;;;;;;12.55;2.90;;;16.60;99.90;;;;;;6224894;23;20008;-67
2023/07/31 00:43:47;;;;;;;12.55;3.08;;;16.60;99.90;;;;;;6226410;23;20000;-67
2023/07/31 00:46:13;;;;;;;10.70;2.65;;;16.50;99.90;;;;;;6222032;23;20004;-68
2023/07/31 00:48:39;;;;;;;10.98;2.10;;;16.50;99.90;;;;;;6224864;23;20000;-66
2023/07/31 00:51:05;;;;;;;7.78;1.90;;;16.50;99.90;;;;;;6223652;23;20087;-66
2023/07/31 00:53:31;;;;;;;7.10;2.08;;;16.50;99.90;;;;;;6227265;23;20038;-66
2023/07/31 00:55:57;;;;;;;12.18;2.47;;;16.50;99.90;;;;;;6227444;23;20004;-66
2023/07/31 00:58:23;;;;;;;9.30;2.30;;;16.50;99.90;;;;;;6224677;23;20646;-66
2023/07/31 01:00:50;;;;;;;9.52;2.33;;;16.50;99.90;;;;;;6225050;23;20000;-66
2023/07/31 01:03:16;;;;;;;8.60;2.50;;;16.50;99.90;;;;;;6224480;23;20762;-66
2023/07/31 01:06:01;;;;;;;14.57;2.80;;;16.60;99.90;;;;;;6221404;23;20015;-67
2023/07/31 01:08:37;;;;;;;9.15;2.63;;;16.60;99.90;;;;;;6228357;23;20572;-67
2023/07/31 01:11:24;;;;;;;9.88;2.38;;;16.60;99.90;;;;;;6227122;23;20561;-67
2023/07/31 01:13:49;;;;;;;8.95;2.33;;;16.50;99.90;;;;;;6228521;23;20007;-66
2023/07/31 01:16:15;;;;;;;12.68;3.13;;;16.60;99.90;;;;;;6200727;23;20269;-66
2023/07/31 01:18:41;;;;;;;15.68;3.53;;;16.50;99.90;;;;;;6228051;23;20011;-66
2023/07/31 01:21:27;;;;;;;12.75;3.33;;;16.60;99.90;;;;;;6198564;23;20038;-67
2023/07/31 01:24:30;;;;;;;18.75;3.13;;;16.60;99.90;;;;;;6226578;23;20039;-66
2023/07/31 01:27:00;;;;;;;10.93;3.25;;;16.60;99.90;;;;;;6227568;23;20270;-66
2023/07/31 01:29:38;;;;;;;12.57;3.20;;;16.60;99.90;;;;;;6199848;23;20558;-66
2023/07/31 01:32:06;;;;;;;14.88;3.42;;;16.60;99.90;;;;;;6229378;23;20083;-66
2023/07/31 01:34:33;;;;;;;19.00;4.30;;;16.60;99.90;;;;;;6223751;23;20004;-66
2023/07/31 01:36:59;;;;;;;19.00;4.03;;;16.60;99.90;;;;;;6222727;23;20107;-66
2023/07/31 01:39:24;;;;;;;17.02;4.20;;;16.60;99.90;;;;;;6223911;23;20003;-66
2023/07/31 01:41:51;;;;;;;11.48;3.60;;;16.60;99.90;;;;;;6227262;23;20004;-66
2023/07/31 01:44:16;;;;;;;9.13;3.22;;;16.60;99.90;;;;;;6227044;23;20398;-66
2023/07/31 01:46:42;;;;;;;14.30;4.18;;;16.60;99.90;;;;;;6226233;23;20007;-66
2023/07/31 01:49:07;;;;;;;24.25;4.35;;;16.60;99.90;;;;;;6219962;23;20287;-67
2023/07/31 01:51:34;;;;;;;22.05;4.57;;;16.60;99.90;;;;;;6221902;23;20074;-67
2023/07/31 01:54:00;;;;;;;16.45;4.05;;;16.60;99.90;;;;;;6222542;23;20095;-67
2023/07/31 01:56:26;;;;;;;21.52;4.63;;;16.60;99.90;;;;;;6222668;23;20004;-67
2023/07/31 01:58:52;;;;;;;17.83;4.40;;;16.60;99.90;;;;;;6220276;23;20058;-66
2023/07/31 02:01:17;;;;;;;17.10;3.95;;;16.70;99.90;;;;;;6221312;23;20107;-67
2023/07/31 02:03:43;;;;;;;15.85;3.90;;;16.60;99.90;;;;;;6224159;23;20107;-67
2023/07/31 02:06:09;;;;;;;14.10;3.92;;;16.70;99.90;;;;;;6222970;23;20004;-67
2023/07/31 02:08:34;;;;;;;16.83;3.72;;;16.70;99.90;;;;;;6224194;23;20012;-67
2023/07/31 02:11:00;;;;;;;18.05;4.30;;;16.70;99.90;;;;;;6224320;23;20099;-67
2023/07/31 02:13:25;;;;;;;22.20;5.35;;;16.70;99.90;;;;;;6224694;23;20158;-68
2023/07/31 02:15:51;;;;;;;25.48;5.80;;;16.70;99.90;;;;;;6196374;23;20470;-67
2023/07/31 02:18:17;;;;;;;30.05;6.85;;;16.70;99.90;;;;;;6222581;23;20479;-67
2023/07/31 02:20:43;;;;;;;32.70;6.68;;;16.70;99.90;;;;;;6220608;23;20128;-68
2023/07/31 02:23:08;;;;;;;31.27;7.00;;;16.70;99.90;;;;;;6223494;23;20031;-67
2023/07/31 02:25:34;;;;;;;30.70;6.55;;;16.70;99.90;;;;;;6197133;23;20011;-67
2023/07/31 02:27:59;;;;;;;25.88;6.28;;;16.70;99.90;;;;;;6226043;23;20324;-68
2023/07/31 02:30:25;;;;;;;21.45;5.30;;;16.70;99.90;;;;;;6223789;23;20074;-68
2023/07/31 02:32:51;;;;;;;24.33;5.63;;;16.70;99.90;;;;;;6224232;23;20004;-66
2023/07/31 02:35:18;;;;;;;24.83;5.35;;;16.80;99.90;;;;;;6192490;23;20012;-66
2023/07/31 02:37:44;;;;;;;16.70;4.50;;;16.80;99.90;;;;;;6221737;23;20008;-67
2023/07/31 02:40:10;;;;;;;13.50;4.53;;;16.80;99.90;;;;;;6220193;23;20058;-67
2023/07/31 02:42:35;;;;;;;17.13;3.72;;;16.70;99.90;;;;;;6221646;23;20008;-67
2023/07/31 02:45:01;;;;;;;15.27;3.40;;;16.80;99.90;;;;;;6224236;23;20019;-67
2023/07/31 02:47:27;;;;;;;11.73;3.40;;;16.70;99.90;;;;;;6198824;23;20008;-67
2023/07/31 02:49:52;;;;;;;20.48;3.60;;;16.80;99.90;;;;;;6223903;23;20560;-67
2023/07/31 02:52:18;;;;;;;15.10;3.97;;;16.70;99.90;;;;;;6225014;23;20413;-67
2023/07/31 02:54:44;;;;;;;14.77;3.83;;;16.70;99.90;;;;;;6225125;23;20016;-67
2023/07/31 02:57:09;;;;;;;12.50;3.33;;;16.70;99.90;;;;;;6223525;23;20016;-68
2023/07/31 02:59:35;;;;;;;10.25;2.83;;;16.80;99.90;;;;;;6196034;23;20062;-67
2023/07/31 03:02:01;;;;;;;12.63;3.00;;;16.70;99.90;;;;;;6225246;23;20078;-67
2023/07/31 03:04:26;;;;;;;12.90;2.90;;;16.80;99.90;;;;;;6223713;23;20000;-67
2023/07/31 03:06:52;;;;;;;9.73;2.70;;;16.70;99.90;;;;;;6225635;23;20080;-67
2023/07/31 03:09:17;;;;;;;12.55;2.95;;;16.70;99.90;;;;;;6198871;23;20070;-67
2023/07/31 03:11:43;;;;;;;11.88;3.05;;;16.70;99.90;;;;;;6200149;23;20399;-67
2023/07/31 03:14:09;;;;;;;9.02;2.53;;;16.80;99.90;;;;;;6226003;23;20008;-68
2023/07/31 03:16:34;;;;;;;13.95;3.05;;;16.80;99.90;;;;;;6227240;23;20004;-68
2023/07/31 03:19:00;;;;;;;11.88;2.92;;;16.80;99.90;;;;;;6224958;23;20004;-67
2023/07/31 03:21:25;;;;;;;16.33;3.13;;;16.80;99.90;;;;;;6196970;23;20432;-67
2023/07/31 03:23:51;;;;;;;11.23;3.78;;;16.80;99.90;;;;;;6224985;23;20008;-67
2023/07/31 03:26:16;;;;;;;10.00;2.70;;;16.90;99.90;;;;;;6197338;23;20008;-67
2023/07/31 03:28:42;;;;;;;7.25;2.50;;;16.90;99.90;;;;;;6197276;23;20448;-67
2023/07/31 03:31:08;;;;;;;12.27;2.42;;;16.80;99.90;;;;;;6224093;23;20019;-67
2023/07/31 03:33:34;;;;;;;11.05;2.35;;;16.80;99.90;;;;;;6225188;23;20192;-66
2023/07/31 03:35:59;;;;;;;11.23;2.28;;;16.90;99.90;;;;;;6221556;23;20043;-66
2023/07/31 03:38:25;;;;;;;11.52;2.15;;;16.90;99.90;;;;;;6225807;23;20004;-67
2023/07/31 03:40:51;;;;;;;15.57;2.97;;;16.90;99.90;;;;;;6198045;23;20404;-66
2023/07/31 03:43:16;;;;;;;18.52;2.60;;;16.90;99.90;;;;;;6226447;23;20008;-66
2023/07/31 03:45:42;;;;;;;9.93;2.67;;;16.90;99.90;;;;;;6224241;23;20046;-67
2023/07/31 03:48:08;;;;;;;9.57;2.65;;;16.90;99.90;;;;;;6225017;23;20008;-67
2023/07/31 03:50:34;;;;;;;10.30;2.63;;;16.90;99.90;;;;;;6223203;23;20413;-67
2023/07/31 03:52:59;;;;;;;19.35;2.83;;;16.90;99.90;;;;;;6197294;23;20409;-66
2023/07/31 03:55:25;;;;;;;11.95;2.30;;;17.00;99.90;;;;;;6221088;23;20008;-67
2023/07/31 03:57:51;;;;;;;13.52;2.75;;;16.90;99.90;;;;;;6194645;23;20012;-67
2023/07/31 04:00:17;;;;;;;13.32;2.80;;;17.00;99.90;;;;;;6219480;23;20008;-66
2023/07/31 04:02:42;;;;;;;9.95;2.72;;;17.00;99.90;;;;;;6220857;23;20411;-66
2023/07/31 04:05:08;;;;;;;15.18;3.25;;;17.00;99.90;;;;;;6218673;23;20004;-67
2023/07/31 04:07:34;;;;;;;15.38;2.42;;;17.00;99.90;;;;;;6193566;23;20016;-66
2023/07/31 04:10:00;;;;;;;12.88;2.40;;;17.10;99.90;;;;;;6221533;23;20008;-66
2023/07/31 04:12:26;;;;;;;10.43;2.22;;;17.10;99.90;;;;;;6221138;23;20152;-66
2023/07/31 04:14:51;;;;;;;13.55;3.10;;;17.10;99.90;;;;;;6222923;23;20358;-66
2023/07/31 04:17:20;;;;;;;9.15;2.30;;;17.10;99.90;;;;;;6221377;23;20482;-66
2023/07/31 04:19:45;;;;;;;18.23;3.08;;;17.10;99.90;;;;;;6218415;23;20082;-66
2023/07/31 04:22:11;;;;;;;10.73;2.72;;;17.10;99.90;;;;;;6221581;23;20004;-66
2023/07/31 04:24:37;;;;;;;15.98;3.35;;;17.10;99.90;;;;;;6220867;23;20526;-66
2023/07/31 04:27:02;;;;;;;17.15;3.20;;;17.10;99.90;;;;;;6221824;23;20007;-66
2023/07/31 04:29:28;;;;;;;13.35;3.58;;;17.10;99.90;;;;;;6221254;23;20015;-66
2023/07/31 04:31:54;;;;;;;14.75;3.05;;;17.20;99.90;;;;;;6222246;23;20023;-66
2023/07/31 04:34:19;;;;;;;12.05;3.25;;;17.20;99.90;;;;;;6219905;23;20402;-66
2023/07/31 04:36:45;;;;;;;17.35;3.75;;;17.20;99.90;;;;;;6222712;23;20404;-66
2023/07/31 04:39:10;;;;;;;19.27;3.53;;;17.20;99.90;;;;;;6225049;23;20352;-66
2023/07/31 04:41:36;;;;;;;18.98;3.78;;;17.20;99.90;;;;;;6222115;23;20388;-66
2023/07/31 04:44:03;;;;;;;14.63;3.40;;;17.20;99.90;;;;;;6195890;23;20190;-66
2023/07/31 04:46:29;;;;;;;12.70;3.90;;;17.20;99.90;;;;;;6223350;23;20290;-66
2023/07/31 04:48:55;;;;;;;14.52;3.13;;;17.20;99.90;;;;;;6222931;23;20497;-66
2023/07/31 04:51:21;;;;;;;17.90;3.17;;;17.30;99.90;;;;;;6223052;23;20091;-66
2023/07/31 04:53:46;;;;;;;19.30;3.55;;;17.30;99.90;;;;;;6223777;23;20027;-66
2023/07/31 04:56:12;;;;;;;13.13;3.05;;;17.30;99.90;;;;;;6195929;23;20011;-66
2023/07/31 04:58:38;;;;;;;19.92;3.47;;;17.30;99.90;;;;;;6196972;23;20008;-66
2023/07/31 05:01:03;;;;;;;12.57;3.00;;;17.30;99.90;;;;;;6221817;23;20202;-66
2023/07/31 05:03:29;;;;;;;15.85;2.85;;;17.30;99.90;;;;;;6222398;23;20075;-66
2023/07/31 05:05:54;;;;;;;12.63;3.30;;;17.30;99.90;;;;;;6221409;23;20008;-66
2023/07/31 05:08:20;;;;;;;14.77;3.05;;;17.30;99.90;;;;;;6222320;23;20000;-66
2023/07/31 05:10:46;;;;;;;12.55;2.97;;;17.40;99.90;;;;;;6222766;23;20309;-66
2023/07/31 05:13:11;;;;;;;17.67;3.30;;;17.30;99.90;;;;;;6225681;23;20004;-66
2023/07/31 05:15:38;;;;;;;17.40;3.30;;;17.40;99.90;;;;;;6225639;23;20008;-66
2023/07/31 05:18:04;;;;;;;16.55;2.90;;;17.40;99.90;;;;;;6223809;23;20015;-66
2023/07/31 05:20:29;;;;;;;12.27;3.53;;;17.40;99.90;;;;;;6220540;23;20336;-66
2023/07/31 05:22:55;;;;;;;14.57;3.40;;;17.40;99.90;;;;;;6222059;23;20016;-66
2023/07/31 05:25:20;;;;;;;20.13;4.20;;;17.40;99.90;;;;;;6194948;23;20451;-66
2023/07/31 05:27:46;;;;;;;18.08;3.22;;;17.50;99.90;;;;;;6226752;23;20008;-66
2023/07/31 05:30:12;;;;;;;12.73;2.65;;;17.50;99.90;;;;;;6225288;23;20479;-66
2023/07/31 05:32:37;;;;;;;13.05;2.58;;;17.50;99.90;;;;;;6222059;23;20277;-66
2023/07/31 05:35:04;;;;;;;11.00;2.80;;;17.50;99.90;;;;;;6221848;23;20334;-66
2023/07/31 05:37:29;;;;;;;9.50;2.25;;;17.50;99.90;;;;;;6226833;23;20001;-66
2023/07/31 05:39:55;;;;;;;7.68;2.25;;;17.50;99.90;;;;;;6226717;23;20110;-66
2023/07/31 05:42:20;;;;;;;9.48;2.22;;;17.60;99.90;;;;;;6226689;23;20007;-66
2023/07/31 05:44:46;;;;;;;9.88;2.47;;;17.60;99.90;;;;;;6225849;23;20003;-66
2023/07/31 05:47:12;;;;;;;7.97;2.13;;;17.70;99.90;;;;;;6226039;23;20325;-66
2023/07/31 05:49:38;;;;;;;7.93;2.20;;;17.60;99.90;;;;;;6221436;23;20008;-66
2023/07/31 05:52:04;;;;;;;9.23;1.75;;;17.60;99.90;;;;;;6223247;23;20530;-66
2023/07/31 05:54:30;;;;;;;7.50;2.25;;;17.60;99.90;;;;;;6196240;23;20100;-66
2023/07/31 05:56:55;;;;;;;4.05;1.98;;;17.60;99.90;;;;;;6223235;23;20048;-66
2023/07/31 05:59:21;;;;;;;6.80;2.35;;;17.60;99.90;;;;;;6221750;23;20010;-66
2023/07/31 06:01:46;;;;;;;7.57;2.13;;;17.60;99.90;;;;;;6220144;23;20023;-66
2023/07/31 06:04:12;;;;;;;8.82;1.90;;;17.60;99.90;;;;;;6219701;23;20400;-66
2023/07/31 06:06:38;;;;;;;13.18;2.30;;;17.70;99.90;;;;;;6222012;23;20320;-66
2023/07/31 06:09:03;;;;;;;6.82;1.92;;;17.70;99.90;;;;;;6225145;23;20019;-66
2023/07/31 06:11:29;;;;;;;9.48;1.70;;;17.70;99.90;;;;;;6223939;23;20023;-66
2023/07/31 06:13:55;;;;;;;4.70;1.95;;;17.80;99.90;;;;;;6221813;23;20000;-66
2023/07/31 06:16:21;;;;;;;7.28;1.50;;;17.90;99.90;;;;;;6219343;23;20537;-66
2023/07/31 06:18:47;;;;;;;9.57;1.75;;;18.00;99.90;;;;;;6220459;23;20007;-66
2023/07/31 06:21:13;;;;;;;8.10;1.60;;;18.00;99.90;;;;;;6219403;23;20003;-66
2023/07/31 06:23:39;;;;;;;7.47;1.73;;;17.90;99.90;;;;;;6216272;23;20474;-65
2023/07/31 06:26:04;;;;;;;5.68;1.60;;;18.00;99.90;;;;;;6217424;23;20004;-66
2023/07/31 06:28:31;;;;;;;7.18;1.60;;;18.00;99.90;;;;;;6211107;23;20123;-66
2023/07/31 06:31:00;;;;;;;4.25;1.30;;;18.10;99.90;;;;;;6212572;23;20031;-66
2023/07/31 06:33:27;;;;;;;6.55;1.38;;;18.20;99.90;;;;;;6215802;23;20571;-66
2023/07/31 06:35:52;;;;;;;7.93;1.25;;;18.30;99.90;;;;;;6215645;23;20578;-66
2023/07/31 06:38:24;;;;;;;3.53;1.20;;;18.30;99.90;;;;;;6222898;23;20000;-66
2023/07/31 06:40:50;;;;;;;5.80;1.80;;;18.10;99.90;;;;;;6220136;23;20010;-66
2023/07/31 06:43:15;;;;;;;8.27;1.40;;;18.20;99.90;;;;;;6220255;23;20115;-66
2023/07/31 06:45:41;;;;;;;6.28;1.50;;;18.30;99.90;;;;;;6218059;23;20063;-67
2023/07/31 06:48:07;;;;;;;8.30;1.40;;;18.30;99.90;;;;;;6219732;23;20007;-71
2023/07/31 06:50:32;;;;;;;3.20;1.10;;;18.50;99.90;;;;;;6211911;23;20012;-67
2023/07/31 06:52:58;;;;;;;4.90;1.30;;;18.50;99.90;;;;;;6217606;23;20051;-67
2023/07/31 06:55:26;;;;;;;5.65;0.80;;;18.60;99.90;;;;;;6222942;23;20031;-67
2023/07/31 06:57:54;;;;;;;3.88;1.27;;;18.50;99.90;;;;;;6224269;23;20023;-67
2023/07/31 07:00:21;;;;;;;4.35;1.15;;;18.50;99.90;;;;;;6222348;23;20028;-66
2023/07/31 07:02:48;;;;;;;6.28;1.20;;;18.60;99.90;;;;;;6221356;23;20031;-66
2023/07/31 07:05:14;;;;;;;4.07;1.25;;;18.70;99.90;;;;;;6221745;23;20012;-67
2023/07/31 07:07:41;;;;;;;5.10;1.60;;;18.70;99.90;;;;;;6223996;23;20004;-66
2023/07/31 07:10:07;;;;;;;6.07;1.23;;;18.90;99.90;;;;;;6224352;23;20008;-66
2023/07/31 07:12:33;;;;;;;3.72;0.90;;;19.10;99.90;;;;;;6196059;23;20016;-66
2023/07/31 07:15:02;;;;;;;2.92;0.90;;;19.00;99.90;;;;;;6221236;23;20328;-66
2023/07/31 07:17:32;;;;;;;6.38;0.90;;;19.00;99.90;;;;;;6224878;23;20371;-72
2023/07/31 07:19:59;;;;;;;2.35;0.90;;;19.10;99.90;;;;;;6218808;23;20008;-66
2023/07/31 07:22:26;;;;;;;4.22;1.33;;;19.20;99.90;;;;;;6221567;23;20008;-66
2023/07/31 07:24:52;;;;;;;1.90;0.85;;;19.10;99.90;;;;;;6220808;23;20012;-66
2023/07/31 07:27:18;;;;;;;4.82;1.13;;;19.30;99.90;;;;;;6223237;23;20310;-66
2023/07/31 07:29:43;;;;;;;5.45;1.20;;;19.20;99.90;;;;;;6220843;23;20438;-65
2023/07/31 07:32:09;;;;;;;6.70;1.55;;;19.40;99.90;;;;;;6218312;23;20341;-65
2023/07/31 07:34:35;;;;;;;6.88;1.65;;;19.70;99.90;;;;;;6218109;23;20284;-66
2023/07/31 07:37:00;;;;;;;7.78;2.30;;;19.70;99.90;;;;;;6221133;23;20202;-66
2023/07/31 07:39:26;;;;;;;12.13;2.80;;;19.60;99.90;;;;;;6192558;23;20114;-67
2023/07/31 07:41:53;;;;;;;7.05;2.08;;;19.40;99.90;;;;;;6219086;23;20157;-68
2023/07/31 07:44:18;;;;;;;11.07;2.30;;;19.20;99.90;;;;;;6219509;23;20011;-67
2023/07/31 07:46:44;;;;;;;7.75;2.15;;;19.10;99.90;;;;;;6221813;23;20004;-67
2023/07/31 07:49:09;;;;;;;11.75;3.42;;;19.10;99.90;;;;;;6218170;23;20476;-68
2023/07/31 07:51:35;;;;;;;10.57;3.55;;;19.10;99.90;;;;;;6219523;23;20457;-68
2023/07/31 07:54:01;;;;;;;12.88;3.33;;;19.00;99.90;;;;;;6192373;23;20012;-68
2023/07/31 07:56:27;;;;;;;12.38;3.00;;;18.90;99.90;;;;;;6219309;23;20527;-70
2023/07/31 07:58:53;;;;;;;13.68;4.82;;;18.80;99.90;;;;;;6225780;23;20003;-67
2023/07/31 08:01:19;;;;;;;11.20;3.92;;;18.70;99.90;;;;;;6220985;23;20004;-67
2023/07/31 08:03:46;;;;;;;14.88;3.00;;;18.70;99.90;;;;;;6219969;23;20011;-71
2023/07/31 08:06:11;;;;;;;11.68;2.40;;;18.70;99.90;;;;;;6217355;23;20748;-73
2023/07/31 08:08:37;;;;;;;12.45;2.45;;;18.70;99.90;;;;;;6222083;23;20027;-71
2023/07/31 08:11:03;;;;;;;9.45;2.10;;;18.60;99.90;;;;;;6223027;23;20475;-72
2023/07/31 08:13:29;;;;;;;11.32;2.45;;;18.80;99.90;;;;;;6222920;23;20000;-70
2023/07/31 08:15:55;;;;;;;11.55;2.50;;;18.90;99.90;;;;;;6217899;23;20004;-72
2023/07/31 08:18:21;;;;;;;4.78;1.85;;;18.90;99.90;;;;;;6219595;23;20118;-66
2023/07/31 08:20:47;;;;;;;8.18;1.35;;;18.90;99.90;;;;;;6217269;23;20054;-65
2023/07/31 08:23:12;;;;;;;8.38;2.03;;;18.90;99.90;;;;;;6223612;23;20055;-65
2023/07/31 08:25:38;;;;;;;7.25;1.80;;;18.70;99.90;;;;;;6221136;23;20485;-64
2023/07/31 08:28:05;;;;;;;5.43;1.88;;;18.70;99.90;;;;;;6223591;23;20071;-65
2023/07/31 08:30:31;;;;;;;8.60;2.10;;;18.70;99.90;;;;;;6219499;23;20036;-65
2023/07/31 08:32:57;;;;;;;5.57;1.48;;;18.70;99.90;;;;;;6220154;23;20016;-65
2023/07/31 08:35:24;;;;;;;9.73;1.65;;;18.70;99.90;;;;;;6218939;23;20082;-65
2023/07/31 08:37:49;;;;;;;11.55;1.77;;;18.70;99.90;;;;;;6225608;23;20230;-65
2023/07/31 08:40:15;;;;;;;7.68;2.10;;;18.60;99.90;;;;;;6221977;23;20012;-65
2023/07/31 08:42:49;;;;;;;5.25;1.50;;;18.60;99.90;;;;;;6227637;23;20000;-65
2023/07/31 08:45:17;;;;;;;5.07;1.40;;;18.70;99.90;;;;;;6223801;23;20000;-65
2023/07/31 08:47:48;;;;;;;5.65;1.40;;;18.80;99.90;;;;;;6198655;23;20004;-65
2023/07/31 08:50:16;;;;;;;6.03;1.92;;;18.90;99.90;;;;;;6195081;23;20016;-65
2023/07/31 08:52:42;;;;;;;10.15;1.70;;;18.90;99.90;;;;;;6227207;23;20064;-66
2023/07/31 08:55:08;;;;;;;4.55;1.15;;;18.70;99.90;;;;;;6224111;23;20004;-65
2023/07/31 08:57:36;;;;;;;7.05;1.77;;;18.60;99.90;;;;;;6222076;23;20522;-65
2023/07/31 09:00:03;;;;;;;8.70;1.77;;;18.70;99.90;;;;;;6221189;23;20019;-65
2023/07/31 09:02:45;;;;;;;8.82;1.90;;;18.70;99.90;;;;;;6224523;23;20455;-65
2023/07/31 09:05:11;;;;;;;9.27;1.90;;;18.80;99.90;;;;;;6222582;23;20020;-65
2023/07/31 09:07:38;;;;;;;9.57;1.63;;;18.70;99.90;;;;;;6223455;23;20003;-65
2023/07/31 09:10:04;;;;;;;12.25;1.80;;;18.70;99.90;;;;;;6226414;23;20318;-66
2023/07/31 09:12:31;;;;;;;8.38;1.88;;;18.80;99.90;;;;;;6227771;23;20012;-65
2023/07/31 09:14:59;;;;;;;7.88;1.63;;;18.70;99.90;;;;;;6226307;23;20194;-65
2023/07/31 09:17:36;;;;;;;5.80;1.65;;;18.70;99.90;;;;;;6224780;23;20135;-65
2023/07/31 09:20:19;;;;;;;8.85;1.55;;;18.70;99.90;;;;;;6192131;23;20072;-65
2023/07/31 09:22:46;;;;;;;4.18;1.42;;;18.80;99.90;;;;;;6224778;23;20004;-66
2023/07/31 09:25:19;;;;;;;9.65;1.63;;;18.70;99.90;;;;;;6218777;23;20502;-65
2023/07/31 09:28:03;;;;;;;5.65;1.25;;;18.90;99.90;;;;;;6220279;23;20004;-66
2023/07/31 09:30:29;;;;;;;5.15;1.08;;;18.90;99.90;;;;;;6223432;23;20193;-66
2023/07/31 09:33:08;;;;;;;6.25;0.88;;;18.90;99.90;;;;;;6220671;23;20377;-65
2023/07/31 09:35:35;;;;;;;6.68;0.80;;;19.00;99.90;;;;;;6192667;23;20031;-65
2023/07/31 09:38:05;;;;;;;5.55;0.90;;;19.00;99.90;;;;;;6220408;23;20004;-65
2023/07/31 09:40:32;;;;;;;3.80;0.65;;;19.10;99.90;;;;;;6223829;23;20300;-65
2023/07/31 09:43:19;;;;;;;9.30;1.27;;;19.10;99.90;;;;;;6218193;23;20008;-65
2023/07/31 09:45:46;;;;;;;4.45;0.90;;;19.10;99.90;;;;;;6221832;23;20032;-65
2023/07/31 09:48:13;;;;;;;6.25;0.85;;;19.20;99.90;;;;;;6220496;23;20101;-65
2023/07/31 09:50:40;;;;;;;12.25;1.40;;;19.30;99.90;;;;;;6217841;23;20181;-65
2023/07/31 09:53:07;;;;;;;4.78;1.02;;;19.30;99.90;;;;;;6222277;23;20083;-65
2023/07/31 09:55:33;;;;;;;8.75;1.20;;;19.20;99.90;;;;;;6223189;23;20043;-65
2023/07/31 09:58:02;;;;;;;6.85;1.17;;;19.10;99.90;;;;;;6219852;23;20079;-65
2023/07/31 10:00:29;;;;;;;4.63;0.98;;;19.10;99.90;;;;;;6218798;23;20255;-65
2023/07/31 10:03:00;;;;;;;5.72;1.25;;;19.20;99.90;;;;;;6195816;23;20518;-64
2023/07/31 10:05:30;;;;;;;8.15;1.08;;;19.10;99.90;;;;;;6217559;23;20058;-65
2023/07/31 10:07:57;;;;;;;8.02;1.10;;;19.20;99.90;;;;;;6219607;23;20063;-65
2023/07/31 10:10:25;;;;;;;5.15;0.95;;;19.20;99.90;;;;;;6217075;23;20016;-65
2023/07/31 10:12:52;;;;;;;4.70;0.90;;;19.40;99.90;;;;;;6218401;23;20444;-65
2023/07/31 10:15:18;;;;;;;5.43;1.13;;;19.50;99.90;;;;;;6218422;23;20498;-66
2023/07/31 10:17:46;;;;;;;5.57;1.08;;;19.60;99.90;;;;;;6219104;23;20054;-66
2023/07/31 10:20:12;;;;;;;5.40;1.00;;;19.50;99.90;;;;;;6214667;23;20077;-66
2023/07/31 10:22:38;;;;;;;3.97;0.63;;;19.70;99.90;;;;;;6213387;23;20443;-66
2023/07/31 10:25:07;;;;;;;2.13;0.47;;;19.80;99.90;;;;;;6214858;23;20004;-66
2023/07/31 10:27:41;;;;;;;5.32;0.60;;;19.80;99.90;;;;;;6216222;23;20035;-66
2023/07/31 10:30:10;;;;;;;2.20;0.55;;;19.70;99.90;;;;;;6218891;23;20011;-66
2023/07/31 10:32:40;;;;;;;2.40;0.40;;;19.80;99.90;;;;;;6219605;23;20019;-66
2023/07/31 10:35:07;;;;;;;2.50;0.52;;;20.10;99.90;;;;;;6216750;23;20531;-66
2023/07/31 10:37:42;;;;;;;1.88;0.28;;;20.50;99.90;;;;;;6219523;23;20454;-66
2023/07/31 10:40:13;;;;;;;3.60;0.50;;;20.80;99.90;;;;;;6220941;23;20454;-66
2023/07/31 10:42:48;;;;;;;1.15;0.30;;;20.90;99.90;;;;;;6193959;23;20043;-66
2023/07/31 10:45:37;;;;;;;2.20;0.35;;;21.30;99.90;;;;;;6220650;23;20007;-66
2023/07/31 10:48:07;;;;;;;2.60;0.50;;;21.60;99.90;;;;;;6221132;23;20004;-66
2023/07/31 10:50:37;;;;;;;0.93;0.30;;;22.00;99.90;;;;;;6218684;23;20020;-66
2023/07/31 10:53:03;;;;;;;5.87;0.43;;;21.80;99.90;;;;;;6221814;23;20379;-66
2023/07/31 10:55:31;;;;;;;2.25;0.55;;;21.60;99.90;;;;;;6219774;23;20233;-66
2023/07/31 10:58:04;;;;;;;3.92;0.40;;;21.30;99.90;;;;;;6221285;23;20027;-66
2023/07/31 11:00:30;;;;;;;3.10;0.63;;;20.90;99.90;;;;;;6219578;23;20332;-66
2023/07/31 11:03:06;;;;;;;1.88;0.45;;;20.80;99.90;;;;;;6218453;23;20071;-66
2023/07/31 11:05:41;;;;;;;3.92;0.52;;;21.00;99.90;;;;;;6217253;23;20008;-66
2023/07/31 11:08:20;;;;;;;3.15;0.65;;;21.20;99.90;;;;;;6221415;23;20008;-66
2023/07/31 11:10:47;;;;;;;3.05;0.40;;;21.30;99.90;;;;;;6223610;23;20451;-66
2023/07/31 11:13:14;;;;;;;2.33;0.50;;;21.50;99.90;;;;;;6223522;23;20000;-65
2023/07/31 11:15:40;;;;;;;2.13;0.38;;;21.70;99.90;;;;;;6223586;23;20019;-66
2023/07/31 11:18:07;;;;;;;1.40;0.30;;;21.70;99.90;;;;;;6222417;23;20004;-65
2023/07/31 11:20:34;;;;;;;1.35;0.30;;;21.50;99.90;;;;;;6218490;23;20007;-67
2023/07/31 11:23:02;;;;;;;0.95;0.10;;;21.30;99.90;;;;;;6220197;23;20418;-65
2023/07/31 11:25:30;;;;;;;4.40;0.52;;;21.00;99.90;;;;;;6218529;23;20000;-66
2023/07/31 11:27:56;;;;;;;1.85;0.30;;;20.80;99.90;;;;;;6217499;23;20387;-66
2023/07/31 11:30:22;;;;;;;2.28;0.40;;;20.60;99.90;;;;;;6191717;23;20584;-65
2023/07/31 11:32:47;;;;;;;1.65;0.60;;;20.60;99.90;;;;;;6218137;23;20098;-66
2023/07/31 11:35:13;;;;;;;0.47;0.20;;;20.80;99.90;;;;;;6214249;23;20462;-65
2023/07/31 11:37:42;;;;;;;1.75;0.25;;;21.40;99.90;;;;;;6219222;23;20000;-66
2023/07/31 11:40:09;;;;;;;1.60;0.28;;;21.80;99.90;;;;;;6220699;23;20444;-65
2023/07/31 11:42:38;;;;;;;2.75;1.20;;;22.60;99.90;;;;;;6220351;23;20471;-65
2023/07/31 11:45:09;;;;;;;0.63;0.20;;;23.20;99.90;;;;;;6219560;23;20018;-66
2023/07/31 11:47:37;;;;;;;1.08;0.25;;;23.90;99.90;;;;;;6217781;23;20008;-66
2023/07/31 11:50:04;;;;;;;1.02;0.20;;;23.90;99.90;;;;;;6214879;23;20004;-65
2023/07/31 11:52:33;;;;;;;4.18;0.38;;;23.20;99.90;;;;;;6221891;23;20004;-66
2023/07/31 11:55:00;;;;;;;2.08;0.52;;;22.90;99.90;;;;;;6220815;23;20000;-66
2023/07/31 11:57:26;;;;;;;0.80;0.30;;;22.60;99.90;;;;;;6218360;23;20074;-66
2023/07/31 11:59:52;;;;;;;2.22;0.30;;;22.20;99.90;;;;;;6219140;23;20178;-66
2023/07/31 12:02:19;;;;;;;1.30;0.30;;;21.70;99.90;;;;;;6219199;23;20166;-65
2023/07/31 12:04:46;;;;;;;2.53;0.47;;;21.40;99.90;;;;;;6220564;23;20051;-65
2023/07/31 12:07:12;;;;;;;3.65;0.52;;;21.10;99.90;;;;;;6192861;23;20114;-66
2023/07/31 12:09:38;;;;;;;3.08;0.40;;;21.20;99.90;;;;;;6220798;23;20461;-65
2023/07/31 12:12:09;;;;;;;0.68;0.30;;;21.10;99.90;;;;;;6220061;23;20140;-66
2023/07/31 12:14:34;;;;;;;2.90;0.30;;;21.20;99.90;;;;;;6221240;23;20106;-65
2023/07/31 12:17:03;;;;;;;1.83;0.30;;;21.10;99.90;;;;;;6221225;23;20316;-65
2023/07/31 12:19:30;;;;;;;1.92;0.68;;;21.10;99.90;;;;;;6218603;23;20587;-66
2023/07/31 12:21:56;;;;;;;1.77;0.40;;;21.00;99.90;;;;;;6190737;23;20066;-65
2023/07/31 12:24:22;;;;;;;2.25;0.50;;;21.10;99.90;;;;;;6216961;23;20011;-66
2023/07/31 12:26:48;;;;;;;1.80;0.45;;;20.80;99.90;;;;;;6214648;23;20336;-66
2023/07/31 12:29:14;;;;;;;1.85;0.73;;;20.60;99.90;;;;;;6217294;23;20029;-66
2023/07/31 12:31:43;;;;;;;1.73;0.70;;;20.60;99.90;;;;;;6216702;23;20051;-65
2023/07/31 12:34:20;;;;;;;2.03;0.30;;;20.50;99.90;;;;;;6218227;23;20083;-66
2023/07/31 12:36:48;;;;;;;2.22;0.38;;;20.30;99.90;;;;;;6220581;23;20361;-66
2023/07/31 12:39:14;;;;;;;1.38;0.40;;;20.20;99.90;;;;;;6219582;23;20480;-66
2023/07/31 12:41:40;;;;;;;3.38;0.50;;;20.20;99.90;;;;;;6193330;23;20008;-66